Meadow Bridge, West Virginia
Current Conditions -  °F | °C
As of 9:51 PM on Friday 28 Nov 2014 (Local Time) from KBKW Reporting Station
Few Clouds Few Clouds  
Wind Chill: 21°   Ceiling: Unl
Heat Index: 26°   Visibility: 10mi
Dew Point: 14°   Wind: 5mph
Humidity: 60%   Direction: 200°SSW
Pressure: 30.16"   Gusts: NA
Location:  37.86°N, 80.85°W
Report Text: KBKW 290251Z AUTO 20004KT 10SM FEW100 M03/M10 A3016 RMK AO2 SLP252 T10331100 55008
Loading
Personal Weather Stations






























Interactive Weather Map New forecast layout! Learn more

10-Day Weather Forecast

Advertisements
Track Severe Weather on mobile